Winn, MI

03:32 PM EST on Decembro 05, 2016 (GMT -0500)
NE Richland Twp | | Change Station

Elev 948 ft 43.44 °N, 84.96 °W | Updated 9 seconds ago

Mostly Cloudy
Moi Anubrado
42.1 °F
Feels Like 42 °F
N
0.0
Vento Variable Vento from LSL
Gusts 0.0 mph

Hoxe
High -- | Low -- °F
--% Chance of Precip.
Yesterday
High -- | Low -- °F
Precip. -- pol
Presión 29.97 pol
Visibilidade 10.0 Millas
Nubes Moi Anubrado 2400 ft
Vento Xeado 42 °F
Nivel de Rosada 19 °F
Humidade 39%
Rainfall 0.40 pol
Fondo da neve Not available.
7:57 AM 5:03 PM
Waxing Crescent, 34% visible
METAR KMOP 052015Z AUTO 20010KT 10SM BKN024 04/M01 A2997 RMK AO2 T00411006
Presión 29.97 pol
Visibilidade 10.0 Millas
Nubes Moi Anubrado 2400 ft
Vento Xeado 42 °F
Nivel de Rosada 19 °F
Humidade 39%
Rainfall 0.40 pol
Fondo da neve Not available.
7:57 AM 5:03 PM
Waxing Crescent, 34% visible
METAR KMOP 052015Z AUTO 20010KT 10SM BKN024 04/M01 A2997 RMK AO2 T00411006

10-Day Weather Forecast

Almanac

Astronomía

Dec. 05, 2016 Rise Set
Tempo actual
Crepúsculo civil
Crepúsculo náutico
Crepúsculo astronómico
Lúa
Lonxitude da luz visíbel
Length of Day
Tomorrow will be .
, % of the Moon is Illuminated

Today's Extremes

State Highs State Lows

Community

WunderPhotos

Upload Photos

1,955,859 photos uploaded!

WunderBlog® & News

Nearby

Air Quality

  Air Quality AQ Index Pollutant
Not available.

Snow Depth

Station Depth Elevation

Earthquake Activity

Cidade Distance Mag. Time & Date
Minimum magnitude displayed is 2.5.

Coastal Water Temperatures

Lugar Temperatura

Stations

Nearby Weather Stations

Station Location Temp Vento Xeado Nivel de Rosada Humidade Vento Precip. Elev Actualización Type
                   

Watches & Warnings

There are currently no watches in effect.